Garnett Industrial Airport (K68)
Garnett, KS
Field Elevation: 989
Lat: 38°16.64N  Long: 95°12.91W
CTAF/Unicom Freq: 122.8000
   
     For Weather-by-Phone, call 785-448-3254
Weather Advisories
10/1/2014 10:05 Z
Altimeter 29.76" Hg
Wind 180° @ 7 KT
Gusts --
Visibility 5 SM
Temperature 21° C (70° F)
Dewpoint 16° C (61° F)
Relative Humidity 73%
Density Altitude 2,100 feet
Condensation Altitude 3,500 feet
  Wind and Runways
Indicated Runway = 19
History
 
 
More Info
All DigiWx sites map
NOAA Forecast
 
Airport IQ 5010
(FLV) Sherman Airfield
(GRE) Greenville
 
about DigiWx
 
FAA Disclaimer: The data displayed is for advisory purposes only and is not to be used for flight planning or operations. For official data, please call 785-448-3254 to hear the current automated AWOS voice message.
  METAR K68 011005Z AUTO 18007KT 5SM 21/16 A2976